Date,TemperatureHighF,TemperatureAvgF,TemperatureLowF,DewpointHighF,DewpointAvgF,DewpointLowF,HumidityHigh,HumidityAvg,HumidityLow,PressureMaxIn,PressureMinIn,WindSpeedMaxMPH,WindSpeedAvgMPH,GustSpeedMaxMPH,PrecipitationSumIn
2013-1-1,34.0,17.8,0.0,21.0,9.0,-5.0,87,70,40,0.00,40.00,9,4,22,0.00
2013-1-2,25.0,20.2,15.0,20.0,14.1,9.0,85,77,59,0.00,40.00,10,7,26,0.01
2013-1-3,47.0,14.9,-5.0,21.0,6.8,-11.0,86,73,22,0.00,40.00,4,2,17,0.06
2013-1-4,55.0,20.2,3.0,17.0,7.3,-3.0,82,63,20,0.00,40.00,5,3,8,0.01
2013-1-5,37.0,25.2,8.0,17.0,12.0,3.0,83,59,38,0.00,40.00,10,6,29,0.00
2013-1-6,52.0,24.5,0.0,17.0,6.7,-5.0,84,56,15,0.00,40.00,8,3,20,0.00
2013-1-7,45.0,24.5,14.0,21.0,15.4,11.0,87,71,34,0.00,40.00,6,2,12,0.00
2013-1-8,41.0,31.8,20.0,28.0,19.7,14.0,84,62,38,0.00,40.00,10,5,26,0.00
2013-1-9,59.0,36.2,14.0,24.0,16.5,9.0,86,53,19,0.00,40.00,12,4,29,0.00
2013-1-10,54.0,44.7,30.0,21.0,12.8,7.0,63,31,15,0.00,40.00,9,4,24,0.00
2013-1-11,31.0,14.5,2.0,23.0,5.7,-11.0,84,68,53,0.00,40.00,12,7,26,0.00
2013-1-12,10.0,4.0,1.0,-2.0,-6.2,-12.0,73,62,54,0.00,40.00,11,6,29,0.00
2013-1-13,13.0,2.6,-6.0,0.0,-5.8,-12.0,77,68,50,0.00,40.00,8,2,20,0.00
2013-1-14,19.0,3.7,-7.0,0.0,-7.9,-13.0,75,60,37,0.00,40.00,7,2,16,0.00
2013-1-15,36.0,23.0,-5.0,28.0,14.2,-11.0,85,69,48,0.00,40.00,10,6,25,0.00
2013-1-16,44.0,36.5,24.0,25.0,18.0,15.0,74,48,32,0.00,40.00,9,5,27,0.00
2013-1-17,48.0,27.5,15.0,21.0,15.4,12.0,88,65,28,0.00,40.00,6,2,14,0.00
2013-1-18,52.0,37.8,21.0,18.0,11.7,7.0,74,38,17,0.00,40.00,9,4,26,0.00
2013-1-19,42.0,30.8,20.0,21.0,16.9,14.0,83,59,32,0.00,40.00,15,6,30,0.00
2013-1-20,35.0,21.2,9.0,17.0,10.5,3.0,83,65,39,0.00,40.00,12,6,26,0.00
2013-1-21,18.0,10.2,4.0,11.0,4.9,-1.0,85,79,70,0.00,40.00,8,3,11,0.00
2013-1-22,48.0,22.2,3.0,24.0,6.3,-2.0,81,58,18,0.00,40.00,9,3,24,0.02
2013-1-23,25.0,17.1,12.0,13.0,9.4,6.0,84,72,59,0.00,40.00,8,5,12,0.01
2013-1-24,58.0,29.2,9.0,24.0,14.8,5.0,86,62,15,0.00,40.00,11,4,32,0.00
2013-1-25,50.0,28.6,14.0,23.0,17.5,11.0,89,68,29,0.00,40.00,7,2,14,0.00
2013-1-26,54.0,31.5,18.0,26.0,20.0,15.0,89,67,30,0.00,40.00,7,3,10,0.00
2013-1-27,54.0,32.7,23.0,31.0,23.8,19.0,92,73,38,0.00,40.00,9,2,15,0.00
2013-1-28,29.0,25.7,22.0,25.0,22.5,17.0,92,88,81,0.00,40.00,5,2,10,0.00
2013-1-29,31.0,16.6,5.0,17.0,8.6,-3.0,90,72,49,0.00,40.00,10,5,25,0.13
2013-1-30,26.0,12.4,-8.0,18.0,5.2,-15.0,83,72,57,0.00,40.00,9,5,25,0.01
2013-1-31,20.0,8.7,2.0,7.0,-1.0,-7.0,84,65,47,0.00,40.00,9,6,22,0.00
2013-2-1,41.0,31.6,14.0,29.0,23.7,11.0,89,73,55,0.00,40.00,9,5,24,0.01
2013-2-2,41.0,32.7,22.0,27.0,19.4,17.0,88,59,39,0.00,40.00,13,7,38,0.01
2013-2-3,52.0,34.6,18.0,20.0,14.9,9.0,87,51,17,0.00,40.00,10,4,27,0.00
2013-2-4,45.0,30.0,16.0,21.0,17.9,13.0,87,64,33,0.00,40.00,10,4,30,0.00
2013-2-5,46.0,35.9,25.0,25.0,22.7,21.0,86,60,38,0.00,40.00,8,3,17,0.00
2013-2-6,47.0,30.6,20.0,26.0,20.9,17.0,89,71,41,0.00,40.00,8,4,20,0.00
2013-2-7,47.0,30.5,15.0,23.0,14.7,10.0,90,59,22,0.00,40.00,7,3,15,0.00
2013-2-8,49.0,31.6,20.0,18.0,15.1,11.0,83,54,21,0.00,40.00,5,2,15,0.00
2013-2-9,38.0,27.1,20.0,20.0,16.6,13.0,90,66,38,0.00,40.00,9,4,18,0.00
2013-2-10,24.0,20.7,15.0,20.0,14.2,6.0,86,76,65,0.00,40.00,15,10,37,0.00
2013-2-11,32.0,17.8,-1.0,12.0,5.0,-6.0,80,59,37,0.00,40.00,7,3,16,0.00
2013-2-12,42.0,30.3,8.0,18.0,13.5,2.0,80,52,35,0.00,40.00,9,4,20,0.00
2013-2-13,41.0,33.3,27.0,28.0,20.4,16.0,79,60,43,0.00,40.00,15,7,33,0.01
2013-2-14,27.0,19.5,2.0,20.0,11.4,-3.0,86,71,53,0.00,40.00,14,7,30,0.01
2013-2-15,32.0,17.4,-1.0,14.0,7.3,-7.0,84,67,37,0.00,40.00,10,3,22,0.03
2013-2-16,49.0,37.3,23.0,23.0,21.7,19.0,87,56,35,0.00,40.00,10,6,27,0.02
2013-2-17,52.0,33.3,20.0,26.0,20.2,15.0,89,63,23,0.00,40.00,12,6,33,0.01
2013-2-18,27.0,21.7,9.0,19.0,12.6,2.0,78,68,58,0.00,40.00,13,9,30,0.00
2013-2-19,25.0,14.0,-7.0,13.0,5.8,-14.0,82,70,54,0.00,40.00,14,7,22,0.00
2013-2-20,32.0,22.6,16.0,16.0,12.5,9.0,77,66,45,0.00,40.00,11,7,17,0.00
2013-2-21,26.0,20.4,17.0,19.0,16.2,14.0,92,84,72,0.00,40.00,5,3,11,0.03
2013-2-22,33.0,22.5,11.0,23.0,11.6,6.0,88,66,37,0.00,40.00,8,3,19,0.02
2013-2-23,44.0,26.1,4.0,27.0,11.1,-1.0,88,58,27,0.00,40.00,5,3,11,0.00
2013-2-24,30.0,23.8,10.0,27.0,18.8,4.0,90,81,71,0.00,40.00,10,5,21,0.00
2013-2-25,47.0,24.2,-2.0,16.0,5.2,-8.0,82,52,16,0.00,40.00,12,4,17,0.02
2013-2-26,33.0,25.0,9.0,25.0,18.4,4.0,86,76,66,0.00,40.00,10,6,20,0.02
2013-2-27,33.0,26.0,16.0,18.0,14.9,9.0,82,63,49,0.00,40.00,12,6,26,0.00
2013-2-28,37.0,23.1,6.0,23.0,14.0,2.0,85,70,40,0.00,40.00,8,4,19,0.01
2013-3-1,42.0,28.9,12.0,28.0,14.6,4.0,92,62,22,0.00,40.00,7,3,16,0.01
2013-3-2,55.0,40.2,26.0,29.0,26.1,24.0,94,62,31,0.00,40.00,7,4,19,0.00
2013-3-3,56.0,38.8,28.0,30.0,25.9,18.0,86,64,32,0.00,40.00,13,4,30,0.00
2013-3-4,28.0,20.4,13.0,18.0,7.5,2.0,73,58,41,0.00,40.00,15,11,41,0.00
2013-3-5,31.0,18.1,2.0,11.0,5.6,-3.0,80,59,36,0.00,40.00,14,5,30,0.00
2013-3-6,44.0,25.7,7.0,19.0,12.4,3.0,83,62,29,0.00,40.00,12,4,18,0.00
2013-3-7,54.0,33.7,21.0,28.0,20.5,17.0,87,63,31,0.00,40.00,10,4,17,0.00
2013-3-8,40.0,31.6,24.0,27.0,23.9,21.0,89,74,55,0.00,40.00,9,4,18,0.00
2013-3-9,37.0,30.2,24.0,26.0,20.0,11.0,91,68,36,0.00,40.00,16,9,37,0.00
2013-3-10,45.0,29.1,15.0,15.0,3.2,-11.0,77,41,10,0.00,40.00,10,6,28,0.00
2013-3-11,42.0,32.2,23.0,26.0,17.1,9.0,72,54,32,0.00,40.00,13,7,30,0.00
2013-3-12,38.0,26.0,18.0,10.0,3.0,-1.0,55,38,20,0.00,40.00,13,7,31,0.00
2013-3-13,60.0,40.4,24.0,26.0,18.9,4.0,75,45,24,0.00,40.00,9,3,23,0.00
2013-3-14,67.0,44.6,29.0,31.0,25.4,23.0,85,54,19,0.00,40.00,8,3,20,0.00
2013-3-15,63.0,45.0,30.0,29.0,24.8,22.0,81,51,21,0.00,40.00,12,6,28,0.00
2013-3-16,35.0,29.5,24.0,33.0,26.8,22.0,97,90,73,0.00,40.00,8,4,16,0.08
2013-3-17,52.0,31.4,22.0,36.0,24.6,12.0,96,79,32,0.00,40.00,13,6,38,0.10
2013-3-18,34.0,25.2,15.0,13.0,5.8,-6.0,66,46,18,0.00,40.00,10,6,30,0.01
2013-3-19,32.0,24.9,11.0,15.0,10.4,3.0,73,55,39,0.00,40.00,11,5,21,0.00
2013-3-20,46.0,25.3,2.0,15.0,6.5,-3.0,81,51,19,0.00,40.00,14,6,23,0.00
2013-3-21,39.0,27.8,18.0,22.0,17.1,12.0,91,66,46,0.00,40.00,11,4,19,0.00
2013-3-22,36.0,25.8,17.0,24.0,20.9,7.0,90,82,56,0.00,40.00,8,4,15,0.10
2013-3-23,27.0,17.4,6.0,8.0,4.6,-3.0,77,59,34,0.00,40.00,12,5,26,0.20
2013-3-24,20.0,8.9,-3.0,5.0,-0.5,-9.0,80,66,47,0.00,40.00,11,6,24,0.02
2013-3-25,32.0,15.7,-5.0,13.0,3.9,-11.0,83,62,29,0.00,40.00,9,4,16,0.04
2013-3-26,45.0,25.1,3.0,17.0,8.0,-2.0,82,55,20,0.00,40.00,8,3,18,0.01
2013-3-27,50.0,29.5,12.0,20.0,13.7,7.0,81,58,27,0.00,40.00,9,4,17,0.00
2013-3-28,57.0,44.7,26.0,26.0,23.7,22.0,86,49,26,0.00,40.00,6,3,16,0.00
2013-3-29,63.0,43.1,25.0,34.0,24.5,18.0,91,57,19,0.00,40.00,8,3,16,0.00
2013-3-30,51.0,37.8,29.0,37.0,30.5,25.0,93,76,38,0.00,40.00,10,4,23,0.09
2013-3-31,49.0,33.5,21.0,32.0,24.0,18.0,95,72,42,0.00,40.00,9,3,14,0.01
2013-4-1,47.0,31.8,17.0,24.0,20.6,14.0,89,67,40,0.00,40.00,7,3,16,0.00
2013-4-2,54.0,35.7,18.0,26.0,19.7,15.0,90,59,29,0.00,40.00,9,4,18,0.01
2013-4-3,65.0,48.1,25.0,34.0,25.0,17.0,77,46,16,0.00,40.00,12,5,20,0.01
2013-4-4,52.0,38.7,26.0,27.0,22.7,17.0,89,57,31,0.00,40.00,10,6,18,0.00
2013-4-5,70.0,46.4,28.0,36.0,27.3,17.0,77,51,19,0.00,40.00,11,5,21,0.00
2013-4-6,58.0,47.9,32.0,37.0,29.1,23.0,81,52,28,0.00,40.00,12,6,26,0.00
2013-4-7,56.0,41.3,28.0,44.0,33.9,24.0,97,77,40,0.00,40.00,6,2,12,0.12
2013-4-8,42.0,27.7,13.0,40.0,24.1,7.0,97,86,72,0.00,40.00,12,5,24,0.02
2013-4-9,12.0,9.5,7.0,7.0,4.6,1.0,84,80,76,0.00,40.00,10,7,21,0.00
2013-4-10,27.0,17.8,7.0,24.0,14.4,0.0,89,86,82,0.00,40.00,9,4,16,0.21
2013-4-11,34.0,19.7,0.0,29.0,15.3,-5.0,90,82,77,0.00,40.00,10,5,22,0.10
2013-4-12,38.0,28.9,19.0,28.0,22.9,16.0,92,79,64,0.00,40.00,9,4,25,0.01
2013-4-13,47.0,30.0,9.0,32.0,22.3,5.0,97,76,46,0.00,40.00,12,5,17,0.01
2013-4-14,36.0,29.6,17.0,33.0,20.5,9.0,97,70,49,0.00,40.00,11,8,29,0.00
2013-4-15,32.0,22.4,13.0,15.0,10.1,6.0,73,59,43,0.00,40.00,9,6,20,0.00
2013-4-16,28.0,21.1,13.0,19.0,14.3,8.0,89,75,50,0.00,40.00,6,2,10,0.05
2013-4-17,28.0,22.5,20.0,20.0,17.5,15.0,90,80,68,0.00,40.00,10,4,17,0.01
2013-4-18,33.0,23.8,16.0,16.0,10.5,6.0,83,60,33,0.00,40.00,12,7,25,0.18
2013-4-19,39.0,31.0,17.0,29.0,25.9,12.0,94,82,63,0.00,40.00,8,5,20,0.07
2013-4-20,51.0,37.5,28.0,35.0,30.9,27.0,97,80,43,0.00,40.00,9,4,16,0.12
2013-4-21,47.0,35.2,28.0,34.0,31.1,26.0,97,86,60,0.00,40.00,9,4,20,0.11
2013-4-22,28.0,22.5,10.0,26.0,16.2,3.0,93,78,54,0.00,40.00,9,5,21,0.28
2013-4-23,37.0,20.9,1.0,19.0,10.0,-4.0,88,66,36,0.00,40.00,7,3,14,0.03
2013-4-24,39.0,30.7,17.0,24.0,18.3,13.0,85,61,39,0.00,40.00,11,6,29,0.02
2013-4-25,62.0,43.3,18.0,24.0,16.5,10.0,90,44,13,0.00,40.00,7,4,18,0.00
2013-4-26,66.0,44.5,25.0,31.0,24.1,21.0,88,55,18,0.00,40.00,8,4,14,0.00
2013-4-27,72.0,50.2,27.0,35.0,27.1,21.0,90,53,15,0.00,40.00,8,4,18,0.00
2013-4-28,61.0,48.0,32.0,42.0,33.0,29.0,96,61,35,0.00,40.00,11,6,25,0.11
2013-4-29,69.0,51.3,31.0,37.0,32.2,24.0,98,58,19,0.00,40.00,10,4,41,0.11
2013-4-30,47.0,38.8,31.0,33.0,23.3,18.0,80,55,33,0.00,40.00,10,6,25,0.01
2013-5-1,42.0,32.2,24.0,19.0,14.1,9.0,70,49,26,0.00,40.00,8,5,19,0.00
2013-5-2,49.0,32.6,15.0,22.0,14.4,10.0,82,52,20,0.00,40.00,8,4,22,0.00
2013-5-3,58.0,39.0,19.0,22.0,17.7,14.0,79,47,23,0.00,40.00,7,4,19,0.00
2013-5-4,54.0,39.4,22.0,24.0,16.6,14.0,77,45,21,0.00,40.00,6,3,15,0.00
2013-5-5,57.0,40.5,21.0,24.0,18.4,14.0,74,46,23,0.00,40.00,5,3,17,0.00
2013-5-6,65.0,46.1,23.0,28.0,24.0,19.0,85,49,22,0.00,40.00,8,4,18,0.00
2013-5-7,69.0,48.2,27.0,45.0,32.7,24.0,87,61,27,0.00,40.00,6,3,22,0.02
2013-5-8,67.0,52.2,31.0,42.0,34.8,30.0,95,58,25,0.00,40.00,7,4,18,0.02
2013-5-9,61.0,47.4,31.0,42.0,37.2,29.0,93,70,42,0.00,40.00,9,4,18,0.00
2013-5-10,68.0,50.8,30.0,47.0,35.6,28.0,96,64,22,0.00,40.00,11,5,42,0.04
2013-5-11,59.0,43.7,26.0,30.0,27.5,24.0,92,58,30,0.00,40.00,8,4,16,0.03
2013-5-12,72.0,52.7,29.0,41.0,33.4,26.0,91,55,26,0.00,40.00,10,4,19,0.00
2013-5-13,85.0,65.5,47.0,50.0,40.5,37.0,74,46,19,0.00,40.00,11,4,20,0.00
2013-5-14,75.0,66.3,46.0,46.0,39.8,33.0,77,39,26,0.00,40.00,11,6,23,0.00
2013-5-15,72.0,60.0,33.0,41.0,37.5,30.0,90,47,29,0.00,40.00,12,7,24,0.00
2013-5-16,65.0,54.5,51.0,57.0,26.2,-99.9,96,70,43,0.00,40.00,10,4,26,0.56
2013-5-17,72.0,58.0,41.0,54.0,42.6,-99.9,98,73,51,0.00,40.00,10,4,20,0.02
2013-5-18,67.0,54.9,44.0,57.0,50.5,43.0,97,86,63,0.00,40.00,7,3,19,0.29
2013-5-19,55.0,50.4,46.0,50.0,47.8,42.0,97,91,82,0.00,40.00,10,5,29,0.34
2013-5-20,50.0,45.0,41.0,44.0,41.3,39.0,92,87,77,0.00,40.00,14,11,32,0.60
2013-5-21,45.0,42.0,40.0,40.0,38.0,36.0,92,85,75,0.00,40.00,12,9,31,0.76
2013-5-22,49.0,44.5,40.0,42.0,40.1,37.0,95,85,76,0.00,40.00,8,5,18,0.01
2013-5-23,60.0,52.6,44.0,44.0,39.3,31.0,87,62,47,0.00,40.00,19,14,36,0.00
2013-5-24,77.0,61.2,47.0,52.0,48.2,43.0,92,64,32,0.00,40.00,17,8,28,0.00
2013-5-25,76.0,61.5,41.0,55.0,49.6,40.0,97,69,41,0.00,40.00,15,7,30,0.00
2013-5-26,72.0,58.5,49.0,57.0,53.0,48.0,98,85,52,0.00,40.00,9,4,17,0.02
2013-5-27,68.0,55.7,43.0,59.0,53.0,40.0,99,92,69,0.00,40.00,12,5,21,0.18
2013-5-28,68.0,52.3,34.0,50.0,41.6,34.0,98,73,34,0.00,40.00,6,3,20,0.79
2013-5-29,66.0,53.8,44.0,54.0,49.1,44.0,99,86,58,0.00,40.00,13,4,25,0.83
2013-5-30,61.0,51.8,45.0,50.0,44.2,38.0,98,77,52,0.00,40.00,11,6,26,0.82
2013-5-31,51.0,45.0,41.0,41.0,38.9,37.0,91,79,68,0.00,40.00,14,9,33,0.36
2013-6-1,58.0,47.7,36.0,40.0,36.9,33.0,94,69,42,0.00,40.00,14,8,27,0.16
2013-6-2,69.0,51.5,29.0,48.0,40.4,28.0,97,70,46,0.00,40.00,13,6,23,0.01
2013-6-3,70.0,55.7,41.0,48.0,42.0,32.0,98,66,25,0.00,40.00,11,5,28,0.00
2013-6-4,58.0,50.8,44.0,38.0,33.9,29.0,72,53,39,0.00,40.00,11,7,24,0.00
2013-6-5,55.0,47.2,42.0,42.0,37.4,34.0,88,69,55,0.00,40.00,8,5,20,0.00
2013-6-6,67.0,52.8,30.0,45.0,40.5,29.0,96,67,41,0.00,40.00,7,3,16,0.00
2013-6-7,74.0,63.5,37.0,53.0,46.9,36.0,97,60,29,0.00,40.00,9,4,17,0.09
2013-6-8,67.0,57.9,45.0,50.0,44.0,38.0,98,64,36,0.00,40.00,15,7,35,0.15
2013-6-9,73.0,62.7,38.0,50.0,45.5,37.0,97,57,34,0.00,40.00,11,6,17,0.02
2013-6-10,81.0,70.5,51.0,56.0,52.1,44.0,89,54,34,0.00,40.00,9,5,18,0.00
2013-6-11,70.0,61.5,53.0,60.0,55.2,52.0,97,81,63,0.00,40.00,11,5,21,0.36
2013-6-12,62.0,54.8,47.0,53.0,49.8,46.0,98,84,64,0.00,40.00,9,5,18,0.36
2013-6-13,74.0,61.0,45.0,56.0,49.8,44.0,97,69,49,0.00,40.00,15,7,25,0.00
2013-6-14,75.0,65.5,56.0,56.0,49.1,44.0,85,58,35,0.00,40.00,9,5,21,0.00
2013-6-15,70.0,61.2,47.0,47.0,41.8,30.0,89,53,27,0.00,40.00,9,4,18,0.00
2013-6-16,74.0,63.7,43.0,56.0,49.0,41.0,95,62,44,0.00,40.00,8,4,19,0.00
2013-6-17,70.0,58.1,48.0,54.0,49.0,46.0,96,74,46,0.00,40.00,11,3,18,0.13
2013-6-18,75.0,62.9,41.0,58.0,50.9,40.0,97,68,46,0.00,40.00,10,5,19,0.01
2013-6-19,79.0,71.6,48.0,61.0,54.7,47.0,96,58,37,0.00,40.00,18,10,36,0.00
2013-6-20,78.0,69.3,62.0,59.0,44.3,35.0,75,45,22,0.00,40.00,9,6,21,0.00
2013-6-22,72.0,60.2,48.0,57.0,51.9,46.0,98,77,51,0.00,40.00,10,4,24,0.35
2013-6-23,71.0,60.6,41.0,52.0,46.1,39.0,98,64,32,0.00,40.00,9,4,19,0.01
2013-6-24,80.0,73.7,53.0,61.0,54.8,44.0,97,53,36,0.00,40.00,8,4,15,0.00
2013-6-25,77.0,71.7,53.0,52.0,47.4,39.0,87,44,32,0.00,40.00,11,6,26,0.00
2013-6-26,84.0,76.8,48.0,56.0,52.2,45.0,95,45,28,0.00,40.00,8,4,15,0.00
2013-6-27,83.0,69.6,50.0,56.0,52.0,49.0,95,58,33,0.00,40.00,8,4,19,0.00
2013-6-28,79.0,73.2,54.0,52.0,48.9,45.0,89,45,33,0.00,40.00,11,7,21,0.00
2013-6-29,74.0,63.2,48.0,56.0,48.6,43.0,96,63,36,0.00,40.00,9,4,19,0.00
2013-6-30,76.0,66.4,44.0,51.0,48.1,42.0,92,54,40,0.00,40.00,7,3,20,0.00
2013-7-1,75.0,64.1,47.0,53.0,49.4,45.0,93,61,45,0.00,40.00,10,5,19,0.00
2013-7-2,80.0,71.5,45.0,53.0,48.8,43.0,93,47,33,0.00,40.00,6,4,14,0.00
2013-7-3,86.0,79.8,53.0,51.0,47.4,44.0,84,34,25,0.00,40.00,8,4,17,0.00
2013-7-4,81.0,69.0,50.0,64.0,56.7,45.0,94,68,39,0.00,40.00,9,3,24,0.09
2013-7-5,78.0,67.2,58.0,62.0,56.2,49.0,97,71,43,0.00,40.00,10,4,19,0.16
2013-7-6,83.0,66.2,51.0,63.0,55.6,50.0,98,74,39,0.00,40.00,11,4,19,0.16
2013-7-7,78.0,67.0,57.0,62.0,57.0,53.0,92,72,52,0.00,40.00,10,4,18,0.03
2013-7-8,82.0,65.8,58.0,66.0,57.0,50.0,97,77,38,0.00,40.00,11,4,29,0.41
2013-7-9,79.0,66.2,49.0,57.0,52.7,48.0,98,66,42,0.00,40.00,8,5,17,0.11
2013-7-10,88.0,71.3,48.0,63.0,52.7,-99.9,96,59,32,0.00,40.00,8,4,23,0.30
2013-7-11,95.0,85.0,68.0,63.0,53.6,41.0,62,37,16,0.00,40.00,15,8,47,0.00
2013-7-12,82.0,73.8,59.0,63.0,54.6,50.0,97,54,35,0.00,40.00,11,5,25,0.09
2013-7-13,84.0,69.7,54.0,65.0,59.3,53.0,98,73,47,0.00,40.00,9,4,19,0.10
2013-7-14,70.0,62.7,57.0,61.0,58.4,56.0,98,87,65,0.00,40.00,6,3,18,0.08
2013-7-15,82.0,69.1,55.0,64.0,58.9,54.0,98,74,46,0.00,40.00,12,6,24,0.01
2013-7-16,87.0,80.3,66.0,56.0,52.4,49.0,62,39,29,0.00,40.00,8,5,17,0.00
2013-7-17,88.0,80.2,55.0,60.0,54.3,51.0,89,43,29,0.00,40.00,12,6,26,0.00
2013-7-18,87.0,81.4,65.0,60.0,54.9,48.0,61,41,28,0.00,40.00,10,6,22,0.00
2013-7-19,85.0,68.3,55.0,63.0,55.6,49.0,97,68,33,0.00,40.00,8,3,14,0.35
2013-7-20,79.0,68.1,58.0,64.0,57.6,-99.9,97,73,49,0.00,40.00,9,3,27,0.10
2013-7-21,87.0,73.2,52.0,59.0,53.2,46.0,98,57,24,0.00,40.00,11,4,21,0.08
2013-7-22,81.0,66.4,52.0,58.0,51.9,46.0,96,66,29,0.00,40.00,12,5,21,0.15
2013-7-23,80.0,66.0,50.0,60.0,55.9,49.0,98,73,47,0.00,40.00,6,3,16,0.03
2013-7-24,83.0,72.5,52.0,58.0,52.6,46.0,97,52,32,0.00,40.00,7,4,15,0.00
2013-7-25,76.0,65.8,53.0,57.0,51.8,48.0,96,64,42,0.00,40.00,10,6,27,0.13
2013-7-26,69.0,57.6,48.0,51.0,46.8,43.0,96,70,49,0.00,40.00,8,4,18,0.11
2013-7-27,69.0,56.0,39.0,51.0,45.9,38.0,96,71,50,0.00,40.00,12,6,20,0.08
2013-7-28,72.0,60.7,44.0,61.0,53.8,43.0,96,79,56,0.00,40.00,9,4,17,0.04
2013-7-29,76.0,63.8,49.0,58.0,51.8,48.0,97,70,42,0.00,40.00,11,5,22,0.02
2013-7-30,82.0,65.0,51.0,60.0,54.9,49.0,93,73,32,0.00,40.00,9,4,24,0.00
2013-7-31,78.0,69.2,48.0,57.0,50.5,47.0,95,54,35,0.00,40.00,7,4,18,0.01
2013-8-1,79.0,69.6,51.0,63.0,56.2,47.0,88,64,40,0.00,40.00,9,5,16,0.38
2013-8-2,73.0,62.2,53.0,59.0,54.0,50.0,94,77,46,0.00,40.00,11,7,22,0.01
2013-8-3,75.0,65.9,55.0,60.0,56.9,52.0,97,75,50,0.00,40.00,13,7,25,0.09
2013-8-4,81.0,69.8,61.0,62.0,59.8,58.0,98,74,45,0.00,40.00,7,4,16,0.01
2013-8-5,79.0,65.0,53.0,65.0,58.0,49.0,97,80,47,0.00,40.00,8,3,22,0.25
2013-8-6,76.0,64.3,49.0,58.0,50.5,47.0,97,66,36,0.00,40.00,12,4,21,0.10
2013-8-7,76.0,67.4,48.0,59.0,54.4,47.0,96,67,43,0.00,40.00,10,5,16,0.04
2013-8-8,76.0,64.0,46.0,56.0,53.3,45.0,97,71,48,0.00,40.00,8,4,19,0.02
2013-8-9,73.0,59.9,50.0,59.0,54.6,49.0,97,85,56,0.00,40.00,6,3,14,0.56
2013-8-10,75.0,65.4,55.0,59.0,57.3,54.0,98,77,57,0.00,40.00,11,4,17,0.02
2013-8-11,73.0,62.2,53.0,63.0,58.3,52.0,97,88,60,0.00,40.00,9,4,17,0.61
2013-8-21,81.0,70.7,51.0,61.0,53.2,49.0,100,58,37,0.00,40.00,11,6,21,0.01
2013-8-22,81.0,68.0,49.0,61.0,56.3,49.0,99,69,44,0.00,40.00,12,7,21,0.01
2013-8-23,87.0,73.0,55.0,62.0,58.5,54.0,97,64,36,0.00,40.00,14,5,24,0.00
2013-8-24,88.0,79.8,62.0,57.0,51.3,47.0,72,40,25,0.00,40.00,10,4,20,0.00
2013-8-25,86.0,73.0,52.0,61.0,56.5,51.0,97,60,33,0.00,40.00,7,3,16,0.00
2013-8-26,91.0,75.9,59.0,62.0,55.6,51.0,93,55,26,0.00,40.00,5,2,10,0.00
2013-8-27,92.0,78.2,53.0,59.0,53.7,49.0,94,50,23,0.00,40.00,6,3,15,0.00
2013-8-28,87.0,80.0,72.0,67.0,62.6,52.0,69,56,43,0.00,40.00,12,8,19,0.00
2013-8-29,89.0,79.1,59.0,55.0,50.0,41.0,81,38,28,0.00,40.00,10,6,20,0.00
2013-8-30,88.0,76.0,54.0,59.0,55.9,51.0,89,53,32,0.00,40.00,8,4,16,0.00
2013-8-31,79.0,74.2,62.0,56.0,46.8,41.0,68,39,29,0.00,40.00,13,8,25,0.00
2013-9-1,80.0,72.5,49.0,47.0,45.1,43.0,79,39,30,0.00,40.00,7,5,16,0.00
2013-9-2,90.0,81.4,56.0,56.0,48.6,46.0,81,34,22,0.00,40.00,12,6,22,0.00
2013-9-3,89.0,74.5,62.0,58.0,55.8,52.0,80,55,33,0.00,40.00,5,3,14,0.00
2013-9-4,88.0,70.2,54.0,62.0,57.8,53.0,96,69,37,0.00,40.00,8,3,16,0.00
2013-9-5,87.0,69.8,57.0,72.0,60.9,57.0,100,77,39,0.00,40.00,9,3,16,0.50
2013-9-6,89.0,72.3,56.0,64.0,60.3,56.0,100,71,36,0.00,40.00,8,3,15,0.48
2013-9-7,91.0,77.2,54.0,63.0,55.2,51.0,98,53,26,0.00,40.00,13,6,24,0.00
2013-9-17,86.0,67.0,45.0,55.0,49.3,43.0,100,62,23,0.00,40.00,10,3,22,0.00
2013-9-18,57.0,52.9,50.0,48.0,45.1,41.0,92,75,64,0.00,40.00,6,3,21,0.00
2013-9-19,60.0,49.9,37.0,43.0,36.5,34.0,91,62,39,0.00,40.00,12,6,25,0.00
2013-9-20,67.0,55.8,34.0,40.0,36.9,32.0,97,53,34,0.00,40.00,7,3,14,0.00
2013-9-21,82.0,73.7,32.0,45.0,36.3,27.0,97,31,14,0.00,40.00,6,4,15,0.00
2013-9-22,84.0,74.9,58.0,50.0,43.7,41.0,73,37,22,0.00,40.00,10,5,20,0.03
2013-9-23,60.0,52.0,38.0,53.0,47.2,36.0,99,85,64,0.00,40.00,10,4,27,0.24
2013-10-3,45.0,41.3,33.0,39.0,36.5,32.0,96,84,60,0.00,40.00,6,3,17,0.57
2013-10-4,32.0,29.3,26.0,32.0,28.2,25.0,98,96,93,0.00,40.00,13,8,28,0.03
2013-10-5,40.0,30.6,25.0,29.0,25.8,24.0,95,83,54,0.00,40.00,12,8,29,0.48
2013-10-6,61.0,55.2,42.0,37.0,34.9,33.0,75,48,35,0.00,40.00,9,6,19,0.01
2013-10-7,73.0,60.1,26.0,38.0,29.1,25.0,98,35,17,0.00,40.00,7,4,20,0.01
2013-10-8,62.0,49.5,31.0,37.0,30.0,27.0,88,52,28,0.00,40.00,8,4,20,0.01
2013-10-9,55.0,39.7,29.0,33.0,29.3,27.0,93,71,36,0.00,40.00,5,2,13,0.00
2013-10-17,41.0,31.7,25.0,31.0,24.0,19.0,91,74,40,0.00,40.00,9,5,20,0.01
2013-10-18,41.0,31.4,22.0,27.0,22.9,21.0,95,73,47,0.00,40.00,8,4,23,0.04
2013-10-19,58.0,46.5,34.0,28.0,26.8,24.0,71,47,31,0.00,40.00,8,4,22,0.01
2013-10-20,46.0,38.0,32.0,35.0,31.8,29.0,94,79,51,0.00,40.00,9,5,27,0.08
2013-10-21,48.0,39.6,27.0,38.0,32.3,26.0,94,76,60,0.00,40.00,11,5,27,0.01
2013-10-22,49.0,41.2,34.0,38.0,34.5,32.0,97,78,52,0.00,40.00,8,4,21,0.06
2013-10-23,46.0,40.2,30.0,37.0,33.6,29.0,98,78,62,0.00,40.00,9,5,18,0.00
2013-10-24,46.0,35.1,27.0,36.0,31.9,26.0,99,89,65,0.00,40.00,8,2,11,0.00
2013-10-25,67.0,49.6,27.0,41.0,32.6,26.0,97,58,24,0.00,40.00,8,4,20,0.01
2013-10-26,62.0,39.1,26.0,34.0,28.6,24.0,94,70,28,0.00,40.00,9,2,14,0.01
2013-10-27,63.0,41.4,26.0,39.0,30.3,25.0,96,71,31,0.00,40.00,9,4,18,0.00
2013-10-28,31.0,23.5,22.0,29.0,21.0,-99.9,97,94,88,0.00,40.00,8,4,17,0.00
2013-10-29,29.0,25.8,22.0,28.0,24.8,21.0,98,95,93,0.00,40.00,6,3,10,0.00
2013-10-30,46.0,30.9,23.0,37.0,29.1,22.0,98,93,65,0.00,40.00,5,1,9,0.06
2013-10-31,46.0,39.0,27.0,31.0,26.3,22.0,95,61,45,0.00,40.00,11,6,32,0.06
2013-11-1,44.0,37.6,24.0,33.0,25.6,18.0,91,64,39,0.00,40.00,17,8,35,0.10
2013-11-2,57.0,40.0,21.0,31.0,23.3,19.0,94,58,25,0.00,40.00,13,4,19,0.01
2013-11-3,53.0,40.1,31.0,31.0,26.4,19.0,80,60,26,0.00,40.00,9,4,18,0.00
2013-11-4,41.0,31.1,24.0,26.0,20.6,13.0,92,68,31,0.00,40.00,8,3,16,0.00
2013-11-5,30.0,23.0,9.0,24.0,19.7,5.0,93,88,74,0.00,40.00,7,3,11,0.20
2013-11-6,42.0,25.5,8.0,30.0,19.1,4.0,95,78,51,0.00,40.00,8,3,22,0.07
2013-11-7,47.0,29.6,15.0,31.0,23.2,13.0,96,79,46,0.00,40.00,9,2,12,0.06
2013-11-8,50.0,42.8,31.0,30.0,23.3,19.0,90,48,33,0.00,40.00,14,7,39,0.06
2013-11-9,43.0,32.2,22.0,25.0,22.2,21.0,94,69,42,0.00,40.00,7,2,20,0.00
2013-11-10,61.0,37.9,22.0,32.0,26.4,21.0,94,69,27,0.00,40.00,11,2,20,0.00
2013-11-11,25.0,18.9,9.0,24.0,15.8,5.0,96,87,78,0.00,40.00,7,3,11,0.03
2013-11-12,55.0,22.7,7.0,27.0,12.6,3.0,85,70,22,0.00,40.00,4,2,7,0.02
2013-11-13,61.0,39.6,26.0,35.0,27.6,22.0,86,67,29,0.00,40.00,5,2,12,0.02
2013-11-14,50.0,36.6,25.0,35.0,25.9,21.0,97,70,33,0.00,40.00,6,2,18,0.02
2013-11-15,52.0,30.5,22.0,32.0,23.8,20.0,95,80,29,0.00,40.00,6,2,14,0.00
2013-11-16,43.0,30.7,22.0,29.0,22.8,18.0,93,75,36,0.00,40.00,5,2,14,0.01
2013-11-17,39.0,28.9,17.0,27.0,18.7,11.0,91,68,32,0.00,40.00,10,4,31,0.02
2013-11-18,51.0,29.0,13.0,21.0,16.5,10.0,89,66,26,0.00,40.00,9,2,13,0.02
2013-11-19,59.0,47.7,28.0,24.0,20.2,17.0,78,37,23,0.00,40.00,10,5,24,0.00
2013-11-20,43.0,23.9,9.0,28.0,17.8,1.0,90,78,53,0.00,40.00,12,6,29,0.00
2013-11-21,21.0,8.8,-4.0,3.0,-1.7,-10.0,82,63,38,0.00,40.00,7,3,19,0.00
2013-11-22,38.0,23.6,-4.0,5.0,-1.5,-10.0,75,41,13,0.00,40.00,10,3,20,0.01
2013-11-23,39.0,20.1,6.0,14.0,7.6,2.0,84,63,30,0.00,40.00,10,2,16,0.01
2013-11-24,61.0,38.0,29.0,26.0,12.8,-2.0,58,37,14,0.00,40.00,9,4,21,0.00
2013-11-25,37.0,31.7,27.0,22.0,15.8,10.0,68,52,38,0.00,40.00,9,4,23,0.00
2013-11-26,36.0,25.9,16.0,16.0,12.7,5.0,88,59,37,0.00,40.00,8,4,18,0.00
2013-11-27,56.0,30.7,17.0,24.0,16.2,10.0,92,64,17,0.00,40.00,11,4,25,0.00
2013-11-28,39.0,21.5,14.0,21.0,15.9,10.0,85,79,47,0.00,40.00,6,2,10,0.00
2013-11-29,58.0,34.1,22.0,27.0,18.7,17.0,88,62,20,0.00,40.00,6,3,20,0.00
2013-11-30,47.0,30.8,20.0,25.0,21.6,16.0,86,71,41,0.00,40.00,5,2,13,0.00
2013-12-1,50.0,34.7,26.0,31.0,23.9,22.0,89,68,36,0.00,40.00,5,2,15,0.00
2013-12-2,49.0,39.7,30.0,33.0,28.8,24.0,96,67,48,0.00,40.00,6,3,16,0.02
2013-12-3,28.0,14.9,6.0,26.0,10.3,-2.0,94,82,71,0.00,40.00,7,5,20,0.02
2013-12-12,48.0,25.7,8.0,18.0,12.8,3.0,83,63,27,0.00,40.00,5,2,16,0.13
2013-12-13,39.0,25.5,14.0,25.0,18.3,11.0,88,75,45,0.00,40.00,8,4,18,0.00
2013-12-14,41.0,34.2,24.0,23.0,20.2,17.0,77,57,42,0.00,40.00,9,4,25,0.00
2013-12-15,50.0,43.2,38.0,23.0,20.2,17.0,54,40,28,0.00,40.00,10,6,24,0.00
2013-12-16,46.0,38.5,27.0,23.0,19.7,17.0,78,48,33,0.00,40.00,10,6,32,0.00
2013-12-17,54.0,34.9,20.0,21.0,17.3,16.0,83,53,24,0.00,40.00,7,3,21,0.00
2013-12-18,57.0,40.4,24.0,22.0,18.5,15.0,83,47,20,0.00,40.00,9,3,19,0.00
2013-12-19,25.0,12.0,-4.0,23.0,8.4,-10.0,96,85,76,0.00,40.00,7,3,12,0.00
2013-12-20,31.0,5.9,-8.0,21.0,-0.5,-14.0,86,75,58,0.00,40.00,4,0,8,0.19
2013-12-21,25.0,11.7,-1.0,17.0,6.9,-6.0,88,81,65,0.00,40.00,7,2,14,0.08
2013-12-22,20.0,7.7,-3.0,11.0,1.7,-9.0,84,76,62,0.00,40.00,7,2,16,0.03
2013-12-23,25.0,12.8,-11.0,22.0,4.9,-20.0,93,72,46,0.00,40.00,6,1,13,0.01
2013-12-24,35.0,28.5,16.0,32.0,22.3,13.0,94,78,58,0.00,40.00,8,5,25,0.04
2013-12-28,49.0,23.8,3.0,23.0,8.9,-5.0,89,55,23,0.00,40.00,17,8,45,0.00
2013-12-29,32.0,16.3,0.0,22.0,6.0,-5.0,87,65,41,0.00,40.00,6,1,14,0.00
2013-12-30,35.0,29.9,23.0,25.0,20.5,16.0,86,68,53,0.00,40.00,12,6,27,0.02
2013-12-31,43.0,32.5,21.0,33.0,25.0,15.0,93,75,56,0.00,40.00,7,2,17,0.01
2014-1-1,29.0,23.2,14.0,24.0,16.8,11.0,90,77,55,0.00,40.00,8,4,25,0.01
2014-1-2,44.0,24.0,9.0,19.0,13.7,6.0,89,69,33,0.00,40.00,5,1,12,0.01